createdAt,value
2022-12-11T00:00:28.433Z,993.6
2022-12-11T00:01:30.832Z,993.6
2022-12-11T00:02:32.476Z,993.5
2022-12-11T00:03:34.444Z,993.6
2022-12-11T00:04:35.403Z,993.6
2022-12-11T00:05:37.471Z,993.6
2022-12-11T00:06:39.370Z,993.5
2022-12-11T00:07:41.353Z,993.5
2022-12-11T00:08:42.390Z,993.6
2022-12-11T00:09:43.451Z,993.6
2022-12-11T00:10:45.431Z,993.6
2022-12-11T00:11:47.487Z,993.6
2022-12-11T00:12:49.392Z,993.6
2022-12-11T00:13:50.371Z,993.5
2022-12-11T00:14:51.360Z,993.5
2022-12-11T00:15:53.429Z,993.5
2022-12-11T00:16:55.447Z,993.6
2022-12-11T00:17:57.454Z,993.6
2022-12-11T00:18:59.450Z,993.6
2022-12-11T00:20:01.615Z,993.6
2022-12-11T00:21:03.413Z,993.6
2022-12-11T00:22:05.372Z,993.5
2022-12-11T00:23:07.434Z,993.6
2022-12-11T00:24:09.478Z,993.6
2022-12-11T00:25:11.754Z,992.7
2022-12-11T00:26:13.351Z,993.4
2022-12-11T00:27:14.438Z,993.5
2022-12-11T00:28:16.471Z,993.5
2022-12-11T00:29:18.451Z,993.5
2022-12-11T00:30:20.470Z,993.6
2022-12-11T00:31:22.507Z,992.8
2022-12-11T00:32:24.433Z,993.3
2022-12-11T00:33:26.430Z,992.7
2022-12-11T00:34:28.594Z,993.3
2022-12-11T00:35:30.831Z,993.5
2022-12-11T00:36:32.371Z,993.5
2022-12-11T00:37:33.436Z,993.6
2022-12-11T00:38:34.412Z,993.6
2022-12-11T00:39:36.435Z,993.6
2022-12-11T00:40:38.480Z,993.6
2022-12-11T00:41:40.472Z,993.7
2022-12-11T00:42:42.475Z,993.6
2022-12-11T00:43:44.430Z,993.7
2022-12-11T00:44:46.461Z,993.6
2022-12-11T00:45:48.461Z,993.6
2022-12-11T00:46:50.430Z,993.6
2022-12-11T00:47:51.394Z,993.6
2022-12-11T00:48:53.412Z,993.6
2022-12-11T00:49:55.472Z,993.6
2022-12-11T00:50:57.432Z,993.6
2022-12-11T00:51:59.472Z,993.6
2022-12-11T00:53:01.508Z,993.6
2022-12-11T00:54:03.451Z,993.6
2022-12-11T00:55:05.470Z,993.5
2022-12-11T00:56:07.408Z,993.5
2022-12-11T00:57:09.512Z,993.5
2022-12-11T00:58:11.513Z,993.4
2022-12-11T00:59:13.432Z,993.5
2022-12-11T01:00:15.443Z,993.6
2022-12-11T01:01:17.482Z,993.5
2022-12-11T01:02:19.438Z,993.5
2022-12-11T01:03:20.439Z,993.5
2022-12-11T01:04:22.455Z,993.5
2022-12-11T01:05:24.435Z,993.5
2022-12-11T01:06:26.464Z,993.5
2022-12-11T01:07:28.450Z,993.5
2022-12-11T01:08:35.421Z,993.5
2022-12-11T01:09:33.073Z,993.5
2022-12-11T01:10:34.455Z,993.7
2022-12-11T01:11:36.434Z,993.6
2022-12-11T01:12:38.410Z,993.7
2022-12-11T01:13:40.520Z,993.6
2022-12-11T01:14:42.490Z,993.6
2022-12-11T01:15:44.443Z,993.7
2022-12-11T01:16:46.522Z,993.7
2022-12-11T01:17:48.452Z,993.8
2022-12-11T01:18:50.391Z,993.7
2022-12-11T01:19:51.452Z,993.7
2022-12-11T01:20:52.478Z,993.7
2022-12-11T01:21:54.513Z,993.7
2022-12-11T01:22:56.452Z,993.6
2022-12-11T01:23:58.451Z,993.6
2022-12-11T01:25:00.451Z,993.6
2022-12-11T01:26:02.551Z,993.7
2022-12-11T01:27:04.491Z,993.7
2022-12-11T01:28:06.430Z,993.7
2022-12-11T01:29:08.496Z,993.7
2022-12-11T01:30:10.491Z,993.7
2022-12-11T01:31:12.470Z,993.7
2022-12-11T01:32:14.472Z,993.7
2022-12-11T01:33:15.452Z,993.7
2022-12-11T01:34:16.452Z,993.7
2022-12-11T01:35:18.550Z,993.7
2022-12-11T01:36:20.420Z,993.8
2022-12-11T01:37:21.450Z,993.7
2022-12-11T01:38:23.492Z,993.7
2022-12-11T01:39:25.471Z,993.7
2022-12-11T01:40:27.430Z,993.8
2022-12-11T01:41:29.470Z,993.4
2022-12-11T01:42:30.912Z,993.7
2022-12-11T01:43:32.458Z,993.7
2022-12-11T01:44:34.479Z,993.7
2022-12-11T01:45:35.413Z,993.8
2022-12-11T01:46:36.451Z,993.7
2022-12-11T01:47:38.490Z,993.8
2022-12-11T01:48:42.288Z,993.7
2022-12-11T01:49:42.539Z,993.7
2022-12-11T01:50:44.850Z,993.7
2022-12-11T01:51:46.479Z,993.7
2022-12-11T01:52:48.473Z,993.7
2022-12-11T01:53:50.454Z,993.7
2022-12-11T01:54:52.471Z,993.7
2022-12-11T01:55:54.451Z,993.7
2022-12-11T01:56:56.451Z,993.8
2022-12-11T01:57:58.511Z,993.7
2022-12-11T01:59:00.457Z,993.7
2022-12-11T02:00:02.521Z,993.6
2022-12-11T02:01:04.535Z,993.6
2022-12-11T02:02:06.563Z,993.5
2022-12-11T02:03:08.493Z,993.5
2022-12-11T02:07:10.936Z,993.5
2022-12-11T02:08:13.529Z,993.4
2022-12-11T02:09:14.516Z,993.4
2022-12-11T02:10:16.456Z,993.4
2022-12-11T02:11:17.477Z,993.3
2022-12-11T02:12:19.460Z,993.3
2022-12-11T02:13:20.444Z,993.3
2022-12-11T02:14:22.431Z,993.3
2022-12-11T02:15:24.502Z,993.3
2022-12-11T02:16:26.584Z,992.9
2022-12-11T02:17:28.476Z,993.2
2022-12-11T02:18:31.018Z,993.3
2022-12-11T02:19:32.453Z,993.3
2022-12-11T02:20:33.456Z,993.2
2022-12-11T02:21:34.477Z,993.2
2022-12-11T02:22:36.436Z,993.1
2022-12-11T02:23:37.437Z,993.1
2022-12-11T02:24:39.516Z,993.1
2022-12-11T02:25:41.561Z,993
2022-12-11T02:26:43.596Z,993.1
2022-12-11T02:27:45.535Z,993.2
2022-12-11T02:28:47.496Z,993.2
2022-12-11T02:29:49.455Z,993.2
2022-12-11T02:30:50.668Z,993.2
2022-12-11T02:31:52.608Z,993.1
2022-12-11T02:32:54.496Z,993.1
2022-12-11T02:33:56.476Z,993.2
2022-12-11T02:34:58.475Z,993.2
2022-12-11T02:36:00.457Z,992.7
2022-12-11T02:37:01.559Z,993.1
2022-12-11T02:38:03.516Z,993.2
2022-12-11T02:39:04.457Z,993.2
2022-12-11T02:40:05.616Z,993.3
2022-12-11T02:41:07.550Z,993.2
2022-12-11T02:42:09.515Z,993.2
2022-12-11T02:43:11.536Z,993.1
2022-12-11T02:44:13.518Z,993.2
2022-12-11T02:45:15.449Z,993.2
2022-12-11T02:46:16.528Z,993.2
2022-12-11T02:47:17.499Z,993.3
2022-12-11T02:48:19.416Z,993.3
2022-12-11T02:49:20.496Z,993.2
2022-12-11T02:50:21.539Z,993.2
2022-12-11T02:51:23.462Z,993.2
2022-12-11T02:52:25.483Z,993.3
2022-12-11T02:53:27.477Z,993.3
2022-12-11T02:54:29.496Z,993.3
2022-12-11T02:55:31.508Z,993.2
2022-12-11T02:56:33.498Z,993.2
2022-12-11T02:57:35.496Z,992.5
2022-12-11T02:58:37.515Z,993.1
2022-12-11T02:59:39.536Z,992.4
2022-12-11T03:00:41.515Z,993
2022-12-11T03:01:43.649Z,993.2
2022-12-11T03:02:45.574Z,993.3
2022-12-11T03:03:47.477Z,993.3
2022-12-11T03:04:49.496Z,993.3
2022-12-11T03:05:50.461Z,993.3
2022-12-11T03:06:51.516Z,993.3
2022-12-11T03:07:53.570Z,993.3
2022-12-11T03:08:55.557Z,993.3
2022-12-11T03:09:57.516Z,993.3
2022-12-11T03:10:59.457Z,993.2
2022-12-11T03:12:01.523Z,993.3
2022-12-11T03:13:03.640Z,993.3
2022-12-11T03:14:05.415Z,993.2
2022-12-11T03:15:06.584Z,993.3
2022-12-11T03:16:08.560Z,993.3
2022-12-11T03:17:10.489Z,993.3
2022-12-11T03:18:12.515Z,993.2
2022-12-11T03:19:14.534Z,993.3
2022-12-11T03:20:16.661Z,993.3
2022-12-11T03:21:18.515Z,993.3
2022-12-11T03:22:20.519Z,993.3
2022-12-11T03:23:21.449Z,993.3
2022-12-11T03:24:22.463Z,993.3
2022-12-11T03:25:24.615Z,993.3
2022-12-11T03:26:26.496Z,993.3
2022-12-11T03:27:28.515Z,993.3
2022-12-11T03:28:31.093Z,993.6
2022-12-11T03:29:32.464Z,993.4
2022-12-11T03:30:33.588Z,993.3
2022-12-11T03:31:35.458Z,992.7
2022-12-11T03:32:36.522Z,993.2
2022-12-11T03:33:37.456Z,993.3
2022-12-11T03:34:38.386Z,993.4
2022-12-11T03:35:39.515Z,993.5
2022-12-11T03:36:41.500Z,993.4
2022-12-11T03:37:43.598Z,993.4
2022-12-11T03:38:45.516Z,993.4
2022-12-11T03:39:47.576Z,993.4
2022-12-11T03:40:49.482Z,993.4
2022-12-11T03:41:50.564Z,993.4
2022-12-11T03:42:52.522Z,993.4
2022-12-11T03:43:54.536Z,993.5
2022-12-11T03:44:56.521Z,993.4
2022-12-11T03:45:58.524Z,993.3
2022-12-11T03:47:00.522Z,993.3
2022-12-11T03:48:02.599Z,993.3
2022-12-11T03:49:04.519Z,993.3
2022-12-11T03:50:06.524Z,993
2022-12-11T03:51:08.597Z,993.2
2022-12-11T03:52:10.555Z,993.3
2022-12-11T03:53:13.176Z,993.3
2022-12-11T03:54:14.515Z,993.3
2022-12-11T03:55:16.497Z,992.5
2022-12-11T03:56:17.438Z,993
2022-12-11T03:57:18.476Z,993.2
2022-12-11T03:58:19.504Z,993.2
2022-12-11T03:59:20.517Z,993.3
2022-12-11T04:00:22.536Z,993.3
2022-12-11T04:01:24.645Z,993.3
2022-12-11T04:02:26.516Z,993.2
2022-12-11T04:03:28.527Z,993.3
2022-12-11T04:04:30.651Z,993.2
2022-12-11T04:05:32.514Z,993.2
2022-12-11T04:06:34.497Z,993.1
2022-12-11T04:07:35.435Z,993.1
2022-12-11T04:08:36.516Z,993.1
2022-12-11T04:09:38.518Z,992.4
2022-12-11T04:10:40.557Z,992.9
2022-12-11T04:11:42.535Z,993.1
2022-12-11T04:12:44.526Z,993.1
2022-12-11T04:13:46.480Z,993.1
2022-12-11T04:14:47.500Z,993.1
2022-12-11T04:15:48.677Z,993.1
2022-12-11T04:16:50.555Z,993.2
2022-12-11T04:17:52.496Z,993.1
2022-12-11T04:18:54.524Z,993.1
2022-12-11T04:19:56.516Z,993.1
2022-12-11T04:20:58.516Z,993.1
2022-12-11T04:21:59.535Z,993.1
2022-12-11T04:23:00.447Z,993.1
2022-12-11T04:24:01.524Z,993.1
2022-12-11T04:25:03.545Z,993.1
2022-12-11T04:26:05.495Z,993
2022-12-11T04:27:06.556Z,993.1
2022-12-11T04:28:07.523Z,993.1
2022-12-11T04:29:09.515Z,993.1
2022-12-11T04:30:11.498Z,993
2022-12-11T04:31:13.482Z,993
2022-12-11T04:32:15.535Z,992.9
2022-12-11T04:33:17.516Z,992.9
2022-12-11T04:34:18.509Z,992.9
2022-12-11T04:35:19.497Z,993
2022-12-11T04:36:20.515Z,993
2022-12-11T04:37:21.508Z,993
2022-12-11T04:38:22.500Z,993
2022-12-11T04:39:23.475Z,993
2022-12-11T04:40:24.560Z,993
2022-12-11T04:41:26.502Z,993
2022-12-11T04:42:27.515Z,993
2022-12-11T04:43:28.454Z,993
2022-12-11T04:44:29.476Z,992.9
2022-12-11T04:45:30.455Z,992.9
2022-12-11T04:46:31.564Z,993
2022-12-11T04:47:32.495Z,993
2022-12-11T04:48:33.424Z,992.9
2022-12-11T04:49:34.590Z,993
2022-12-11T04:50:36.463Z,993.1
2022-12-11T04:51:37.478Z,993
2022-12-11T04:52:39.515Z,993
2022-12-11T04:53:41.538Z,993
2022-12-11T04:54:44.195Z,993
2022-12-11T04:55:45.565Z,993
2022-12-11T04:56:47.496Z,993
2022-12-11T04:57:49.536Z,993
2022-12-11T04:58:50.538Z,993
2022-12-11T04:59:52.540Z,993
2022-12-11T05:00:54.515Z,993
2022-12-11T05:01:56.671Z,992.9
2022-12-11T05:02:58.571Z,992.9
2022-12-11T05:04:00.482Z,992.9
2022-12-11T05:05:02.594Z,992.9
2022-12-11T05:06:04.516Z,992.9
2022-12-11T05:07:06.465Z,992.9
2022-12-11T05:08:07.578Z,992.9
2022-12-11T05:09:09.556Z,992.9
2022-12-11T05:10:11.577Z,992.8
2022-12-11T05:11:13.504Z,992.9
2022-12-11T05:12:15.539Z,992.8
2022-12-11T05:13:17.574Z,992.1
2022-12-11T05:14:19.631Z,992.7
2022-12-11T05:15:21.560Z,992.9
2022-12-11T05:16:23.568Z,992.9
2022-12-11T05:17:25.556Z,992.9
2022-12-11T05:18:27.563Z,992.9
2022-12-11T05:19:29.541Z,992.9
2022-12-11T05:20:31.499Z,992.9
2022-12-11T05:21:35.115Z,991.7
2022-12-11T05:22:33.575Z,992.6
2022-12-11T05:23:34.557Z,992.7
2022-12-11T05:24:35.515Z,992.8
2022-12-11T05:25:36.475Z,992.8
2022-12-11T05:26:37.495Z,992.8
2022-12-11T05:27:41.616Z,992.8
2022-12-11T05:28:43.555Z,992.8
2022-12-11T05:29:45.575Z,992.8
2022-12-11T05:30:47.577Z,992.8
2022-12-11T05:31:49.645Z,992.8
2022-12-11T05:32:51.502Z,992.8
2022-12-11T05:33:52.556Z,992.8
2022-12-11T05:34:54.556Z,992
2022-12-11T05:35:56.532Z,992.5
2022-12-11T05:36:58.576Z,992.7
2022-12-11T05:38:00.615Z,992.7
2022-12-11T05:39:02.615Z,992.7
2022-12-11T05:40:04.536Z,992.7
2022-12-11T05:41:05.496Z,992.8
2022-12-11T05:42:06.577Z,992.7
2022-12-11T05:43:08.636Z,992.7
2022-12-11T05:44:10.594Z,992.7
2022-12-11T05:45:12.943Z,992.7
2022-12-11T05:46:14.643Z,992.7
2022-12-11T05:47:16.641Z,992.7
2022-12-11T05:48:18.696Z,992.7
2022-12-11T05:49:22.621Z,992.7
2022-12-11T05:50:22.537Z,992.8
2022-12-11T05:51:23.582Z,992.8
2022-12-11T05:52:25.551Z,992.7
2022-12-11T05:53:27.624Z,992.7
2022-12-11T05:54:29.482Z,992.7
2022-12-11T05:55:30.595Z,992.7
2022-12-11T05:56:32.557Z,992.7
2022-12-11T05:57:33.555Z,992.8
2022-12-11T05:58:34.595Z,992.7
2022-12-11T05:59:36.596Z,992.6
2022-12-11T06:00:38.636Z,992.3
2022-12-11T06:01:40.884Z,992.6
2022-12-11T06:02:42.643Z,992.7
2022-12-11T06:03:44.516Z,992.7
2022-12-11T06:04:46.656Z,992.7
2022-12-11T06:05:48.632Z,992.7
2022-12-11T06:06:50.622Z,992.7
2022-12-11T06:07:52.623Z,992.8
2022-12-11T06:08:54.576Z,992.7
2022-12-11T06:09:56.697Z,992.8
2022-12-11T06:10:58.532Z,992.8
2022-12-11T06:12:00.556Z,992.8
2022-12-11T06:13:02.575Z,992.8
2022-12-11T06:14:04.555Z,992.8
2022-12-11T06:15:06.663Z,992.8
2022-12-11T06:16:08.539Z,992.8
2022-12-11T06:17:09.516Z,992.8
2022-12-11T06:18:10.616Z,992.9
2022-12-11T06:19:12.536Z,992.9
2022-12-11T06:20:14.579Z,992.9
2022-12-11T06:21:16.594Z,992.9
2022-12-11T06:22:17.591Z,992.9
2022-12-11T06:23:18.535Z,992.9
2022-12-11T06:24:19.622Z,992.9
2022-12-11T06:25:21.534Z,992.9
2022-12-11T06:26:22.549Z,992.9
2022-12-11T06:27:23.576Z,992.9
2022-12-11T06:28:25.530Z,992.9
2022-12-11T06:29:27.555Z,992.9
2022-12-11T06:30:37.446Z,992.9
2022-12-11T06:31:31.625Z,993
2022-12-11T06:32:33.549Z,992.9
2022-12-11T06:33:34.557Z,993
2022-12-11T06:34:35.596Z,992.9
2022-12-11T06:35:41.894Z,993
2022-12-11T06:36:39.657Z,993.1
2022-12-11T06:37:41.601Z,993.1
2022-12-11T06:38:43.616Z,993.1
2022-12-11T06:39:45.623Z,993.2
2022-12-11T06:40:47.615Z,993.2
2022-12-11T06:41:49.744Z,993.2
2022-12-11T06:42:51.568Z,993.2
2022-12-11T06:43:53.535Z,993.2
2022-12-11T06:44:54.675Z,993.2
2022-12-11T06:46:00.663Z,993.2
2022-12-11T06:46:58.598Z,993.2
2022-12-11T06:48:00.667Z,993.2
2022-12-11T06:49:02.618Z,993.2
2022-12-11T06:50:04.715Z,993.2
2022-12-11T06:51:06.635Z,993.2
2022-12-11T06:52:09.365Z,993.2
2022-12-11T06:53:09.645Z,993.3
2022-12-11T06:54:11.616Z,993.2
2022-12-11T06:55:13.879Z,993.2
2022-12-11T06:56:15.594Z,993.2
2022-12-11T06:57:17.656Z,993.2
2022-12-11T06:58:19.603Z,993.2
2022-12-11T06:59:21.616Z,993.3
2022-12-11T07:00:23.574Z,993.2
2022-12-11T07:01:24.698Z,993.1
2022-12-11T07:02:25.700Z,993.2
2022-12-11T07:03:27.616Z,993.2
2022-12-11T07:04:29.579Z,993.2
2022-12-11T07:05:30.632Z,993.3
2022-12-11T07:06:32.596Z,993.2
2022-12-11T07:07:34.656Z,993.2
2022-12-11T07:08:37.688Z,993.2
2022-12-11T07:09:38.632Z,993.3
2022-12-11T07:10:40.636Z,993.2
2022-12-11T07:11:42.635Z,993.3
2022-12-11T07:12:44.586Z,993.2
2022-12-11T07:13:46.559Z,993.3
2022-12-11T07:14:47.575Z,993.3
2022-12-11T07:15:49.604Z,993.3
2022-12-11T07:16:51.695Z,993.3
2022-12-11T07:17:53.677Z,993.2
2022-12-11T07:18:55.652Z,993.3
2022-12-11T07:19:57.626Z,993.3
2022-12-11T07:20:59.635Z,993.3
2022-12-11T07:22:01.626Z,993.2
2022-12-11T07:23:03.575Z,993.2
2022-12-11T07:24:04.646Z,993.3
2022-12-11T07:25:06.676Z,993.3
2022-12-11T07:26:08.605Z,993.3
2022-12-11T07:27:10.655Z,993.3
2022-12-11T07:28:16.585Z,993.3
2022-12-11T07:29:14.595Z,993.2
2022-12-11T07:30:16.715Z,993.3
2022-12-11T07:31:18.687Z,993.2
2022-12-11T07:32:20.711Z,993.2
2022-12-11T07:33:22.615Z,993.3
2022-12-11T07:34:24.655Z,993.3
2022-12-11T07:35:26.704Z,993.3
2022-12-11T07:36:28.578Z,993.3
2022-12-11T07:37:30.882Z,993.3
2022-12-11T07:38:32.796Z,993.3
2022-12-11T07:39:34.918Z,993.4
2022-12-11T07:40:37.277Z,993.4
2022-12-11T07:41:38.558Z,993.3
2022-12-11T07:42:45.914Z,993.4
2022-12-11T07:43:42.620Z,993.3
2022-12-11T07:44:44.587Z,993.3
2022-12-11T07:45:46.614Z,993.4
2022-12-11T07:46:48.638Z,993.3
2022-12-11T07:47:51.156Z,993.3
2022-12-11T07:48:52.676Z,993.3
2022-12-11T07:49:54.773Z,993.4
2022-12-11T07:50:56.635Z,993.3
2022-12-11T07:51:58.598Z,993.3
2022-12-11T07:53:01.237Z,993.3
2022-12-11T07:54:02.704Z,993.3
2022-12-11T07:55:04.643Z,993.3
2022-12-11T07:56:05.655Z,993.3
2022-12-11T07:57:12.430Z,992.9
2022-12-11T07:58:10.245Z,993.1
2022-12-11T07:59:11.598Z,993.3
2022-12-11T08:00:13.646Z,993.3
2022-12-11T08:01:15.578Z,993.4
2022-12-11T08:02:17.713Z,993.3
2022-12-11T08:03:20.408Z,993.3
2022-12-11T08:04:21.615Z,993.2
2022-12-11T08:05:23.657Z,993.2
2022-12-11T08:06:25.615Z,993.2
2022-12-11T08:07:29.059Z,993.3
2022-12-11T08:08:30.719Z,993.2
2022-12-11T08:09:32.635Z,993.3
2022-12-11T08:10:34.927Z,993.3
2022-12-11T08:11:36.656Z,993.3
2022-12-11T08:12:38.589Z,993.3
2022-12-11T08:13:40.735Z,993.4
2022-12-11T08:14:43.075Z,993.4
2022-12-11T08:15:44.669Z,993
2022-12-11T08:16:46.811Z,993.3
2022-12-11T08:17:48.856Z,993.4
2022-12-11T08:18:50.643Z,993.4
2022-12-11T08:19:53.037Z,993.4
2022-12-11T08:20:54.836Z,993.3
2022-12-11T08:21:57.516Z,993.3
2022-12-11T08:22:59.257Z,993.3
2022-12-11T08:24:01.067Z,993.3
2022-12-11T08:25:03.615Z,993.3
2022-12-11T08:26:05.659Z,992.5
2022-12-11T08:27:07.637Z,993.1
2022-12-11T08:28:09.572Z,993.3
2022-12-11T08:29:11.636Z,993.3
2022-12-11T08:30:13.655Z,993.3
2022-12-11T08:31:15.718Z,993.3
2022-12-11T08:32:17.591Z,993
2022-12-11T08:33:18.699Z,993.2
2022-12-11T08:34:20.657Z,992.8
2022-12-11T08:35:21.615Z,993.3
2022-12-11T08:36:22.692Z,993.4
2022-12-11T08:37:24.598Z,993.5
2022-12-11T08:38:26.636Z,993.4
2022-12-11T08:39:28.636Z,993.4
2022-12-11T08:40:30.616Z,993.3
2022-12-11T08:41:32.782Z,993.3
2022-12-11T08:42:35.542Z,993.3
2022-12-11T08:43:36.561Z,993.3
2022-12-11T08:44:37.656Z,993.3
2022-12-11T08:45:38.636Z,993.3
2022-12-11T08:46:40.756Z,993.3
2022-12-11T08:47:42.676Z,993.3
2022-12-11T08:48:44.801Z,993.3
2022-12-11T08:49:46.702Z,993.3
2022-12-11T08:50:48.676Z,993
2022-12-11T08:51:50.657Z,992.9
2022-12-11T08:52:52.656Z,992.8
2022-12-11T08:53:54.696Z,993.2
2022-12-11T08:54:56.655Z,993.3
2022-12-11T08:55:58.695Z,993.3
2022-12-11T08:57:00.620Z,993.4
2022-12-11T08:58:02.636Z,993.3
2022-12-11T08:59:03.697Z,993.4
2022-12-11T09:00:05.797Z,993.4
2022-12-11T09:01:07.685Z,993.4
2022-12-11T09:02:09.089Z,993.4
2022-12-11T09:03:12.872Z,993.4
2022-12-11T09:04:12.657Z,993.4
2022-12-11T09:05:14.675Z,993.4
2022-12-11T09:06:16.649Z,993.4
2022-12-11T09:07:18.656Z,993.4
2022-12-11T09:08:20.803Z,993
2022-12-11T09:09:22.656Z,993.3
2022-12-11T09:10:24.669Z,993.5
2022-12-11T09:11:26.677Z,993
2022-12-11T09:12:28.701Z,993.3
2022-12-11T09:13:30.591Z,993.4
2022-12-11T09:14:32.646Z,993.2
2022-12-11T09:15:34.687Z,993.3
2022-12-11T09:16:35.635Z,993.3
2022-12-11T09:17:36.655Z,993.3
2022-12-11T09:18:38.636Z,993.3
2022-12-11T09:19:40.582Z,993.3
2022-12-11T09:20:41.616Z,993.3
2022-12-11T09:21:42.616Z,993.2
2022-12-11T09:22:44.077Z,993.2
2022-12-11T09:23:45.645Z,993.2
2022-12-11T09:24:46.965Z,993.2
2022-12-11T09:25:48.616Z,993.3
2022-12-11T09:26:50.315Z,993.2
2022-12-11T09:27:51.640Z,992.8
2022-12-11T09:28:52.595Z,993.1
2022-12-11T09:29:53.860Z,993.1
2022-12-11T09:30:55.752Z,993.2
2022-12-11T09:31:58.781Z,993.2
2022-12-11T09:33:00.649Z,993.1
2022-12-11T09:34:02.655Z,993
2022-12-11T09:35:04.698Z,992.2
2022-12-11T09:36:06.704Z,992.8
2022-12-11T09:37:08.662Z,993
2022-12-11T09:38:10.673Z,992.9
2022-12-11T09:39:12.877Z,992.9
2022-12-11T09:40:16.001Z,992.9
2022-12-11T09:41:17.689Z,992.9
2022-12-11T09:42:19.716Z,992.5
2022-12-11T09:43:22.044Z,992.8
2022-12-11T09:44:24.148Z,992.9
2022-12-11T09:45:26.449Z,992.7
2022-12-11T09:46:32.214Z,992.8
2022-12-11T09:47:29.642Z,992.9
2022-12-11T09:48:31.729Z,993
2022-12-11T09:49:34.121Z,992.7
2022-12-11T09:50:35.678Z,992.9
2022-12-11T09:51:37.917Z,992.5
2022-12-11T09:52:39.704Z,992.7
2022-12-11T09:53:41.695Z,992.8
2022-12-11T09:54:43.935Z,992.8
2022-12-11T09:55:45.894Z,992.5
2022-12-11T09:56:47.776Z,992.8
2022-12-11T09:57:49.699Z,992.5
2022-12-11T09:58:58.238Z,992.4
2022-12-11T09:59:55.268Z,992.6
2022-12-11T10:00:56.276Z,992.7
2022-12-11T10:01:57.916Z,992.7
2022-12-11T10:02:59.716Z,992.8
2022-12-11T10:04:01.701Z,992.8
2022-12-11T10:05:04.602Z,992.8
2022-12-11T10:06:06.993Z,992.8
2022-12-11T10:07:08.672Z,992.8
2022-12-11T10:08:10.681Z,992.8
2022-12-11T10:09:12.659Z,992.8
2022-12-11T10:10:14.654Z,992.8
2022-12-11T10:11:17.057Z,991.8
2022-12-11T10:12:18.836Z,992.5
2022-12-11T10:13:21.256Z,992.7
2022-12-11T10:14:22.675Z,992.7
2022-12-11T10:15:24.889Z,992.9
2022-12-11T10:16:28.075Z,992.7
2022-12-11T10:17:29.652Z,992.7
2022-12-11T10:18:31.238Z,992.7
2022-12-11T10:19:32.737Z,992.7
2022-12-11T10:20:34.697Z,992.6
2022-12-11T10:21:35.617Z,992.5
2022-12-11T10:22:37.138Z,992.6
2022-12-11T10:23:38.658Z,992.6
2022-12-11T10:25:09.863Z,992.5
2022-12-11T10:25:41.696Z,992.5
2022-12-11T10:26:43.677Z,992.5
2022-12-11T10:27:45.715Z,992.4
2022-12-11T10:28:48.243Z,992.4
2022-12-11T10:29:50.681Z,992.4
2022-12-11T10:30:52.921Z,992.5
2022-12-11T10:31:54.655Z,992.4
2022-12-11T10:32:56.816Z,992.4
2022-12-11T10:33:58.752Z,992.5
2022-12-11T10:35:01.186Z,992.5
2022-12-11T10:36:02.915Z,992.5
2022-12-11T10:37:05.104Z,992.5
2022-12-11T10:38:06.679Z,992.5
2022-12-11T10:39:08.665Z,992.4
2022-12-11T10:40:10.764Z,992.5
2022-12-11T10:41:12.977Z,992.5
2022-12-11T10:42:15.129Z,992.5
2022-12-11T10:43:17.072Z,992.4
2022-12-11T10:44:18.821Z,992.5
2022-12-11T10:45:20.684Z,992.4
2022-12-11T10:46:22.749Z,992.4
2022-12-11T10:47:24.715Z,992.6
2022-12-11T10:48:26.668Z,992.5
2022-12-11T10:49:28.755Z,992.5
2022-12-11T10:50:30.695Z,992.4
2022-12-11T10:51:32.669Z,992.5
2022-12-11T10:52:34.736Z,992.4
2022-12-11T10:53:36.676Z,992.4
2022-12-11T10:54:38.737Z,992.4
2022-12-11T10:55:40.677Z,992.4
2022-12-11T10:56:42.717Z,992.2
2022-12-11T10:57:44.796Z,992.3
2022-12-11T10:58:46.882Z,992.2
2022-12-11T10:59:48.814Z,992.2
2022-12-11T11:00:50.821Z,992.3
2022-12-11T11:01:52.762Z,992.4
2022-12-11T11:02:55.953Z,992.4
2022-12-11T11:03:57.675Z,992.3
2022-12-11T11:04:59.736Z,992
2022-12-11T11:06:01.758Z,992.3
2022-12-11T11:07:04.233Z,992.4
2022-12-11T11:08:05.826Z,992.2
2022-12-11T11:09:07.744Z,992.3
2022-12-11T11:10:09.795Z,992.2
2022-12-11T11:11:11.718Z,992.2
2022-12-11T11:12:14.537Z,992.2
2022-12-11T11:13:16.796Z,992.2
2022-12-11T11:14:18.796Z,992.2
2022-12-11T11:15:20.715Z,992.1
2022-12-11T11:16:22.803Z,992.1
2022-12-11T11:17:24.943Z,992.1
2022-12-11T11:18:26.685Z,992.1
2022-12-11T11:19:28.735Z,992
2022-12-11T11:20:30.752Z,992.1
2022-12-11T11:21:32.648Z,992
2022-12-11T11:22:34.937Z,992.1
2022-12-11T11:23:38.717Z,992.1
2022-12-11T11:24:38.733Z,991.6
2022-12-11T11:25:40.716Z,991.6
2022-12-11T11:27:11.448Z,991.9
2022-12-11T11:27:44.950Z,992
2022-12-11T11:28:46.701Z,992
2022-12-11T11:29:53.046Z,991.9
2022-12-11T11:30:51.940Z,992.1
2022-12-11T11:31:53.856Z,992
2022-12-11T11:32:55.724Z,992
2022-12-11T11:33:57.875Z,992
2022-12-11T11:35:00.985Z,992
2022-12-11T11:36:02.664Z,991.9
2022-12-11T11:37:05.910Z,992
2022-12-11T11:38:08.068Z,991.9
2022-12-11T11:39:09.686Z,992
2022-12-11T11:40:12.025Z,991.9
2022-12-11T11:41:15.197Z,991.9
2022-12-11T11:42:15.837Z,991.9
2022-12-11T11:43:17.676Z,991.9
2022-12-11T11:44:18.666Z,991.8
2022-12-11T11:45:20.692Z,991.8
2022-12-11T11:46:22.834Z,991.9
2022-12-11T11:47:25.344Z,991.8
2022-12-11T11:48:26.830Z,991.8
2022-12-11T11:49:28.776Z,991.9
2022-12-11T11:50:30.661Z,991.8
2022-12-11T11:51:31.662Z,991.8
2022-12-11T11:52:32.940Z,991.8
2022-12-11T11:53:34.645Z,991.8
2022-12-11T11:54:37.142Z,991.8
2022-12-11T11:55:38.718Z,991.8
2022-12-11T11:56:40.698Z,991.9
2022-12-11T11:57:42.690Z,991.9
2022-12-11T11:58:44.666Z,991.9
2022-12-11T11:59:45.839Z,991.9
2022-12-11T12:00:47.667Z,991.9
2022-12-11T12:01:48.860Z,991.9
2022-12-11T12:02:50.847Z,991.9
2022-12-11T12:03:52.782Z,991.9
2022-12-11T12:04:55.715Z,991.9
2022-12-11T12:05:57.784Z,991.8
2022-12-11T12:06:59.701Z,991.9
2022-12-11T12:08:02.741Z,991.8
2022-12-11T12:09:03.620Z,991.9
2022-12-11T12:10:05.729Z,991.8
2022-12-11T12:11:07.798Z,991.8
2022-12-11T12:12:09.809Z,991.7
2022-12-11T12:13:30.401Z,991.8
2022-12-11T12:14:43.444Z,991.9
2022-12-11T12:15:15.750Z,991.9
2022-12-11T12:16:43.996Z,991.8
2022-12-11T12:17:19.749Z,991.8
2022-12-11T12:18:21.393Z,991.8
2022-12-11T12:19:23.267Z,991.8
2022-12-11T12:20:24.939Z,991.8
2022-12-11T12:21:26.686Z,991.8
2022-12-11T12:22:27.716Z,991.8
2022-12-11T12:23:33.400Z,991.8
2022-12-11T12:24:31.164Z,991.8
2022-12-11T12:25:33.011Z,991.8
2022-12-11T12:26:34.697Z,991.7
2022-12-11T12:27:51.893Z,991.8
2022-12-11T12:28:38.818Z,991.7
2022-12-11T12:29:40.821Z,991.7
2022-12-11T12:30:42.716Z,991.8
2022-12-11T12:31:44.776Z,991.8
2022-12-11T12:32:46.758Z,991.7
2022-12-11T12:33:48.815Z,991.8
2022-12-11T12:34:50.718Z,991.8
2022-12-11T12:35:51.721Z,991.8
2022-12-11T12:36:52.697Z,991.8
2022-12-11T12:37:53.963Z,991.8
2022-12-11T12:38:55.760Z,991.8
2022-12-11T12:39:57.775Z,991.8
2022-12-11T12:40:59.710Z,991.8
2022-12-11T12:42:07.179Z,991.8
2022-12-11T12:43:03.736Z,991.8
2022-12-11T12:44:05.251Z,991.8
2022-12-11T12:45:06.804Z,991.8
2022-12-11T12:46:08.860Z,991.7
2022-12-11T12:47:10.757Z,991.9
2022-12-11T12:48:11.680Z,991.8
2022-12-11T12:49:13.796Z,991.8
2022-12-11T12:50:16.538Z,991.7
2022-12-11T12:51:17.737Z,991.7
2022-12-11T12:52:18.736Z,991.7
2022-12-11T12:53:19.735Z,991.7
2022-12-11T12:54:20.766Z,991.7
2022-12-11T12:55:22.754Z,991.6
2022-12-11T12:56:24.715Z,991.7
2022-12-11T12:57:26.772Z,991.7
2022-12-11T12:58:29.837Z,991.7
2022-12-11T12:59:32.081Z,991.6
2022-12-11T13:00:33.775Z,991.7
2022-12-11T13:01:36.488Z,991.7
2022-12-11T13:02:37.726Z,991.7
2022-12-11T13:03:39.701Z,991.7
2022-12-11T13:04:56.848Z,991.7
2022-12-11T13:05:43.750Z,991.7
2022-12-11T13:06:44.815Z,991.8
2022-12-11T13:07:49.778Z,991.8
2022-12-11T13:08:48.816Z,991.8
2022-12-11T13:09:50.845Z,991.8
2022-12-11T13:10:52.715Z,991.8
2022-12-11T13:11:55.135Z,991.8
2022-12-11T13:12:56.717Z,991.8
2022-12-11T13:13:58.338Z,991.9
2022-12-11T13:14:59.690Z,991.8
2022-12-11T13:16:00.764Z,991.8
2022-12-11T13:17:01.826Z,991.8
2022-12-11T13:18:03.795Z,991.8
2022-12-11T13:19:05.756Z,991.8
2022-12-11T13:20:07.865Z,991.8
2022-12-11T13:21:09.813Z,991.9
2022-12-11T13:22:11.996Z,991.9
2022-12-11T13:23:13.795Z,992